Dades meteomassalio
Diari Summary for Marc 7, 2018 Units:  Both    English   Metric
« Previous Day
Next Day »
Diari Semanal Mensual Anual Personalitzat
  Maxima: Minima: Mijana:
Temperatura: TemperatureC °F /  -17.8 °C 1.7 °F /  -16.8 °C 7.7 °F /  -13.5 °C
Rosada: DewpointC °F /  -17.8 °C -4.4 °F /  -20.2 °C 0.7 °F /  -17.4 °C
Humitat: Humidity % 39 % 63 %
Velocitat del vent: WindSpeedKMH mph /  0 km/h - 15.3 mph /  24.6 km/h
Racha vent: WindSpeedGustKMH mph /  0 km/h - -
Vent:- - West
Pressio: PressurehPa in /  0 hPa 1003.9 in /  33992.1 hPa -
Pluja: 0.0 in /  0 mm    
Historical Graphs
 
 
Tabular Data for Marc 7, 2018
Time Temperature Dew Point Pressure Wind Wind Speed Wind Gust Humidity Rainfall Rate (Hourly) solar Conditions
TemperatureC °F /  -17.8 °C DewpointC °F /  -17.8 °C PressurehPa in /  0 hPa Calm     Humidity % HourlyPrecipMM in /  0 mm SolarRadiationWatts/m^2 W/m2 Conditions
00:03 1.7 °F /  -16.8 °C -4.4 °F /  -20.2 °C 1003.9 in /  33992.1 hPa WNW 22.2 mph /  35.7 km/h 22.2 mph /  35.7 km/h 64 % 0.0 in /  0 mm 0.0 W/m2 CLR
00:08 1.7 °F /  -16.8 °C -4.4 °F /  -20.2 °C 1003.9 in /  33992.1 hPa WNW 22.5 mph /  36.2 km/h 22.5 mph /  36.2 km/h 64 % 0.0 in /  0 mm 0.0 W/m2 CLR
00:13 3.3 °F /  -15.9 °C -2.8 °F /  -19.3 °C 1003.9 in /  33992.1 hPa WNW 20.4 mph /  32.8 km/h 20.4 mph /  32.8 km/h 64 % 0.0 in /  0 mm 0.0 W/m2 CLR
00:18 4.4 °F /  -15.3 °C -2.0 °F /  -18.9 °C 1003.9 in /  33992.1 hPa West 20.4 mph /  32.8 km/h 20.4 mph /  32.8 km/h 63 % 0.0 in /  0 mm 0.0 W/m2 CLR
00:23 4.4 °F /  -15.3 °C -1.8 °F /  -18.8 °C 1003.9 in /  33992.1 hPa NW 14.8 mph /  23.8 km/h 14.8 mph /  23.8 km/h 64 % 0.0 in /  0 mm 0.0 W/m2 CLR
00:28 4.4 °F /  -15.3 °C -1.8 °F /  -18.8 °C 1003.9 in /  33992.1 hPa NW 18.5 mph /  29.8 km/h 18.5 mph /  29.8 km/h 64 % 0.0 in /  0 mm 0.0 W/m2 CLR
00:33 4.4 °F /  -15.3 °C -2.0 °F /  -18.9 °C 1004.3 in /  34005.6 hPa NW 16.7 mph /  26.9 km/h 16.7 mph /  26.9 km/h 63 % 0.0 in /  0 mm 0.0 W/m2 CLR
00:39 3.9 °F /  -15.6 °C -2.3 °F /  -19.1 °C 1004.3 in /  34005.6 hPa West 16.7 mph /  26.9 km/h 16.7 mph /  26.9 km/h 64 % 0.0 in /  0 mm 0.0 W/m2 CLR
00:44 3.9 °F /  -15.6 °C -2.3 °F /  -19.1 °C 1004.3 in /  34005.6 hPa WNW 20.4 mph /  32.8 km/h 20.4 mph /  32.8 km/h 64 % 0.0 in /  0 mm 0.0 W/m2 CLR
00:49 3.3 °F /  -15.9 °C -2.6 °F /  -19.2 °C 1004.3 in /  34005.6 hPa NW 14.8 mph /  23.8 km/h 14.8 mph /  23.8 km/h 65 % 0.0 in /  0 mm 0.0 W/m2 CLR
00:54 3.9 °F /  -15.6 °C -1.9 °F /  -18.8 °C 1004.3 in /  34005.6 hPa NW 16.7 mph /  26.9 km/h 16.7 mph /  26.9 km/h 66 % 0.0 in /  0 mm 0.0 W/m2 CLR
00:59 4.4 °F /  -15.3 °C -1.3 °F /  -18.5 °C 1004.3 in /  34005.6 hPa WNW 14.8 mph /  23.8 km/h 14.8 mph /  23.8 km/h 66 % 0.0 in /  0 mm 0.0 W/m2 CLR
01:04 4.4 °F /  -15.3 °C -1.6 °F /  -18.7 °C 1004.3 in /  34005.6 hPa WNW 16.7 mph /  26.9 km/h 16.7 mph /  26.9 km/h 65 % 0.0 in /  0 mm 0.0 W/m2 CLR
01:09 4.4 °F /  -15.3 °C -1.8 °F /  -18.8 °C 1004.6 in /  34015.8 hPa NW 18.5 mph /  29.8 km/h 18.5 mph /  29.8 km/h 64 % 0.0 in /  0 mm 0.0 W/m2 CLR
01:14 3.9 °F /  -15.6 °C -2.3 °F /  -19.1 °C 1004.6 in /  34015.8 hPa WNW 18.5 mph /  29.8 km/h 18.5 mph /  29.8 km/h 64 % 0.0 in /  0 mm 0.0 W/m2 CLR
01:19 3.9 °F /  -15.6 °C -2.3 °F /  -19.1 °C 1004.6 in /  34015.8 hPa NW 18.5 mph /  29.8 km/h 18.5 mph /  29.8 km/h 64 % 0.0 in /  0 mm 0.0 W/m2 CLR
01:24 4.4 °F /  -15.3 °C -2.0 °F /  -18.9 °C 1004.6 in /  34015.8 hPa NW 14.8 mph /  23.8 km/h 14.8 mph /  23.8 km/h 63 % 0.0 in /  0 mm 0.0 W/m2 CLR
01:29 4.4 °F /  -15.3 °C -2.0 °F /  -18.9 °C 1004.6 in /  34015.8 hPa NW 18.5 mph /  29.8 km/h 18.5 mph /  29.8 km/h 63 % 0.0 in /  0 mm 0.0 W/m2 CLR
01:34 4.4 °F /  -15.3 °C -2.0 °F /  -18.9 °C 1004.6 in /  34015.8 hPa WNW 16.1 mph /  25.9 km/h 16.1 mph /  25.9 km/h 63 % 0.0 in /  0 mm 0.0 W/m2 CLR
01:39 5.0 °F /  -15 °C -1.4 °F /  -18.6 °C 1004.6 in /  34015.8 hPa NNW 14.8 mph /  23.8 km/h 14.8 mph /  23.8 km/h 63 % 0.0 in /  0 mm 0.0 W/m2 CLR
01:44 5.6 °F /  -14.7 °C -0.9 °F /  -18.3 °C 1004.6 in /  34015.8 hPa NW 18.5 mph /  29.8 km/h 18.5 mph /  29.8 km/h 63 % 0.0 in /  0 mm 0.0 W/m2 CLR
01:49 6.7 °F /  -14.1 °C 0.3 °F /  -17.6 °C 1004.6 in /  34015.8 hPa NW 20.9 mph /  33.6 km/h 20.9 mph /  33.6 km/h 64 % 0.0 in /  0 mm 0.0 W/m2 CLR
01:54 7.2 °F /  -13.8 °C 0.7 °F /  -17.4 °C 1005.0 in /  34029.3 hPa NW 24.1 mph /  38.8 km/h 24.1 mph /  38.8 km/h 63 % 0.0 in /  0 mm 0.0 W/m2 CLR
01:59 7.8 °F /  -13.4 °C 1.4 °F /  -17 °C 1005.0 in /  34029.3 hPa NNW 22.2 mph /  35.7 km/h 22.2 mph /  35.7 km/h 64 % 0.0 in /  0 mm 0.0 W/m2 CLR
02:04 7.8 °F /  -13.4 °C 1.4 °F /  -17 °C 1005.0 in /  34029.3 hPa NW 18.5 mph /  29.8 km/h 18.5 mph /  29.8 km/h 64 % 0.0 in /  0 mm 0.0 W/m2 CLR
02:09 7.2 °F /  -13.8 °C 1.1 °F /  -17.2 °C 1005.0 in /  34029.3 hPa NW 11.1 mph /  17.9 km/h 11.1 mph /  17.9 km/h 65 % 0.0 in /  0 mm 0.0 W/m2 CLR
02:14 7.2 °F /  -13.8 °C 1.1 °F /  -17.2 °C 1005.0 in /  34029.3 hPa NW 13.0 mph /  20.9 km/h 13.0 mph /  20.9 km/h 65 % 0.0 in /  0 mm 0.0 W/m2 CLR
02:19 6.7 °F /  -14.1 °C 0.8 °F /  -17.3 °C 1005.0 in /  34029.3 hPa NW 13.0 mph /  20.9 km/h 13.0 mph /  20.9 km/h 66 % 0.0 in /  0 mm 0.0 W/m2 CLR
02:24 6.1 °F /  -14.4 °C 0.2 °F /  -17.7 °C 1005.3 in /  34039.5 hPa NW 11.1 mph /  17.9 km/h 11.1 mph /  17.9 km/h 66 % 0.0 in /  0 mm 0.0 W/m2 CLR
02:29 6.1 °F /  -14.4 °C 0.2 °F /  -17.7 °C 1005.3 in /  34039.5 hPa NNW 11.1 mph /  17.9 km/h 11.1 mph /  17.9 km/h 66 % 0.0 in /  0 mm 0.0 W/m2 CLR
02:34 5.6 °F /  -14.7 °C -0.3 °F /  -17.9 °C 1005.3 in /  34039.5 hPa NW 13.0 mph /  20.9 km/h 13.0 mph /  20.9 km/h 66 % 0.0 in /  0 mm 0.0 W/m2 CLR
02:39 5.6 °F /  -14.7 °C -0.1 °F /  -17.8 °C 1005.6 in /  34049.6 hPa NW 18.5 mph /  29.8 km/h 18.5 mph /  29.8 km/h 67 % 0.0 in /  0 mm 0.0 W/m2 CLR
02:44 6.1 °F /  -14.4 °C 0.4 °F /  -17.6 °C 1005.6 in /  34049.6 hPa NW 18.5 mph /  29.8 km/h 18.5 mph /  29.8 km/h 67 % 0.0 in /  0 mm 0.0 W/m2 CLR
02:49 6.1 °F /  -14.4 °C 0.8 °F /  -17.3 °C 1005.6 in /  34049.6 hPa NNW 20.4 mph /  32.8 km/h 20.4 mph /  32.8 km/h 69 % 0.0 in /  0 mm 0.0 W/m2 CLR
02:54 6.7 °F /  -14.1 °C 1.6 °F /  -16.9 °C 1006.0 in /  34063.2 hPa North 20.4 mph /  32.8 km/h 20.4 mph /  32.8 km/h 70 % 0.0 in /  0 mm 0.0 W/m2 CLR
02:59 6.1 °F /  -14.4 °C 1.2 °F /  -17.1 °C 1006.0 in /  34063.2 hPa North 22.5 mph /  36.2 km/h 22.5 mph /  36.2 km/h 71 % 0.0 in /  0 mm 0.0 W/m2 CLR
03:04 6.1 °F /  -14.4 °C 1.6 °F /  -16.9 °C 1006.0 in /  34063.2 hPa North 22.2 mph /  35.7 km/h 22.2 mph /  35.7 km/h 73 % 0.0 in /  0 mm 0.0 W/m2 CLR
03:09 6.1 °F /  -14.4 °C 1.8 °F /  -16.8 °C 1006.3 in /  34073.3 hPa North 25.9 mph /  41.7 km/h 25.9 mph /  41.7 km/h 74 % 0.0 in /  0 mm 0.0 W/m2 CLR
03:14 6.1 °F /  -14.4 °C 2.0 °F /  -16.7 °C 1006.3 in /  34073.3 hPa North 20.4 mph /  32.8 km/h 20.4 mph /  32.8 km/h 75 % 0.0 in /  0 mm 0.0 W/m2 CLR
03:19 6.1 °F /  -14.4 °C 2.2 °F /  -16.6 °C 1006.3 in /  34073.3 hPa NNW 22.2 mph /  35.7 km/h 22.2 mph /  35.7 km/h 76 % 0.0 in /  0 mm 0.0 W/m2 CLR
03:24 5.6 °F /  -14.7 °C 1.8 °F /  -16.8 °C 1006.3 in /  34073.3 hPa NW 18.5 mph /  29.8 km/h 18.5 mph /  29.8 km/h 77 % 0.0 in /  0 mm 0.0 W/m2 CLR
03:29 5.6 °F /  -14.7 °C 1.8 °F /  -16.8 °C 1006.3 in /  34073.3 hPa NNW 14.8 mph /  23.8 km/h 14.8 mph /  23.8 km/h 77 % 0.0 in /  0 mm 0.0 W/m2 CLR
03:34 5.6 °F /  -14.7 °C 2.0 °F /  -16.7 °C 1006.3 in /  34073.3 hPa NW 14.8 mph /  23.8 km/h 14.8 mph /  23.8 km/h 78 % 0.0 in /  0 mm 0.0 W/m2 CLR
03:39 5.0 °F /  -15 °C 1.7 °F /  -16.8 °C 1006.3 in /  34073.3 hPa NW 9.3 mph /  15 km/h 9.3 mph /  15 km/h 79 % 0.0 in /  0 mm 0.0 W/m2 CLR
03:44 5.0 °F /  -15 °C 1.7 °F /  -16.8 °C 1006.3 in /  34073.3 hPa NW 11.3 mph /  18.2 km/h 11.3 mph /  18.2 km/h 79 % 0.0 in /  0 mm 0.0 W/m2 CLR
03:49 5.0 °F /  -15 °C 1.7 °F /  -16.8 °C 1006.3 in /  34073.3 hPa NW 11.1 mph /  17.9 km/h 11.1 mph /  17.9 km/h 79 % 0.0 in /  0 mm 0.0 W/m2 CLR
03:54 5.0 °F /  -15 °C 1.8 °F /  -16.8 °C 1006.7 in /  34086.9 hPa NW 9.7 mph /  15.6 km/h 9.7 mph /  15.6 km/h 80 % 0.0 in /  0 mm 0.0 W/m2 CLR
03:59 5.0 °F /  -15 °C 1.8 °F /  -16.8 °C 1006.7 in /  34086.9 hPa NW 16.7 mph /  26.9 km/h 16.7 mph /  26.9 km/h 80 % 0.0 in /  0 mm 0.0 W/m2 CLR
04:04 5.0 °F /  -15 °C 1.7 °F /  -16.8 °C 1006.7 in /  34086.9 hPa NNW 18.5 mph /  29.8 km/h 18.5 mph /  29.8 km/h 79 % 0.0 in /  0 mm 0.0 W/m2 CLR
04:09 5.0 °F /  -15 °C 1.5 °F /  -16.9 °C 1006.7 in /  34086.9 hPa NW 18.5 mph /  29.8 km/h 18.5 mph /  29.8 km/h 78 % 0.0 in /  0 mm 0.0 W/m2 CLR
04:14 5.0 °F /  -15 °C 1.5 °F /  -16.9 °C 1006.7 in /  34086.9 hPa NW 20.4 mph /  32.8 km/h 20.4 mph /  32.8 km/h 78 % 0.0 in /  0 mm 0.0 W/m2 CLR
04:19 5.0 °F /  -15 °C 1.5 °F /  -16.9 °C 1006.7 in /  34086.9 hPa NNW 13.0 mph /  20.9 km/h 13.0 mph /  20.9 km/h 78 % 0.0 in /  0 mm 0.0 W/m2 CLR
04:24 5.0 °F /  -15 °C 1.5 °F /  -16.9 °C 1006.7 in /  34086.9 hPa NW 13.0 mph /  20.9 km/h 13.0 mph /  20.9 km/h 78 % 0.0 in /  0 mm 0.0 W/m2 CLR
04:29 5.0 °F /  -15 °C 1.7 °F /  -16.8 °C 1006.7 in /  34086.9 hPa NW 13.0 mph /  20.9 km/h 13.0 mph /  20.9 km/h 79 % 0.0 in /  0 mm 0.0 W/m2 CLR
04:34 4.4 °F /  -15.3 °C 1.1 °F /  -17.2 °C 1006.7 in /  34086.9 hPa WNW 11.1 mph /  17.9 km/h 11.1 mph /  17.9 km/h 79 % 0.0 in /  0 mm 0.0 W/m2 CLR
04:39 4.4 °F /  -15.3 °C 1.1 °F /  -17.2 °C 1006.7 in /  34086.9 hPa Calm     79 % 0.0 in /  0 mm 0.0 W/m2 CLR
04:44 4.4 °F /  -15.3 °C 1.1 °F /  -17.2 °C 1007.0 in /  34097 hPa Calm     79 % 0.0 in /  0 mm 0.0 W/m2 CLR
04:49 3.9 °F /  -15.6 °C 0.8 °F /  -17.3 °C 1007.0 in /  34097 hPa Calm     80 % 0.0 in /  0 mm 0.0 W/m2 CLR
04:54 3.9 °F /  -15.6 °C 0.9 °F /  -17.3 °C 1007.0 in /  34097 hPa Calm     81 % 0.0 in /  0 mm 0.0 W/m2 CLR
04:59 3.9 °F /  -15.6 °C 1.1 °F /  -17.2 °C 1007.0 in /  34097 hPa Calm     82 % 0.0 in /  0 mm 0.0 W/m2 CLR
05:04 3.9 °F /  -15.6 °C 1.1 °F /  -17.2 °C 1007.0 in /  34097 hPa Calm     82 % 0.0 in /  0 mm 0.0 W/m2 CLR
05:09 3.9 °F /  -15.6 °C 1.1 °F /  -17.2 °C 1007.0 in /  34097 hPa Calm     82 % 0.0 in /  0 mm 0.0 W/m2 CLR
05:14 4.4 °F /  -15.3 °C 1.6 °F /  -16.9 °C 1007.0 in /  34097 hPa Calm     82 % 0.0 in /  0 mm 0.0 W/m2 CLR
05:19 5.0 °F /  -15 °C 2.2 °F /  -16.6 °C 1007.3 in /  34107.2 hPa NW 13.0 mph /  20.9 km/h 13.0 mph /  20.9 km/h 82 % 0.0 in /  0 mm 0.0 W/m2 CLR
05:24 5.0 °F /  -15 °C 2.2 °F /  -16.6 °C 1007.3 in /  34107.2 hPa NW 9.7 mph /  15.6 km/h 9.7 mph /  15.6 km/h 82 % 0.0 in /  0 mm 0.0 W/m2 CLR
05:29 5.0 °F /  -15 °C 2.2 °F /  -16.6 °C 1007.3 in /  34107.2 hPa Calm     82 % 0.0 in /  0 mm 0.0 W/m2 CLR
05:34 5.0 °F /  -15 °C 2.0 °F /  -16.7 °C 1007.3 in /  34107.2 hPa NW 14.8 mph /  23.8 km/h 14.8 mph /  23.8 km/h 81 % 0.0 in /  0 mm 0.0 W/m2 CLR
05:39 4.4 °F /  -15.3 °C 1.3 °F /  -17.1 °C 1007.3 in /  34107.2 hPa NW 13.0 mph /  20.9 km/h 13.0 mph /  20.9 km/h 80 % 0.0 in /  0 mm 0.0 W/m2 CLR
05:45 4.4 °F /  -15.3 °C 1.3 °F /  -17.1 °C 1007.3 in /  34107.2 hPa NW 13.0 mph /  20.9 km/h 13.0 mph /  20.9 km/h 80 % 0.0 in /  0 mm 0.0 W/m2 CLR
05:50 4.4 °F /  -15.3 °C 1.4 °F /  -17 °C 1007.7 in /  34120.7 hPa NW 14.8 mph /  23.8 km/h 14.8 mph /  23.8 km/h 81 % 0.0 in /  0 mm 0.0 W/m2 CLR
05:55 4.4 °F /  -15.3 °C 1.4 °F /  -17 °C 1007.7 in /  34120.7 hPa NW 14.8 mph /  23.8 km/h 14.8 mph /  23.8 km/h 81 % 0.0 in /  0 mm 0.0 W/m2 CLR
06:00 5.0 °F /  -15 °C 2.0 °F /  -16.7 °C 1007.7 in /  34120.7 hPa NW 14.8 mph /  23.8 km/h 14.8 mph /  23.8 km/h 81 % 0.0 in /  0 mm 0.0 W/m2 CLR
06:05 4.4 °F /  -15.3 °C 1.4 °F /  -17 °C 1007.7 in /  34120.7 hPa WNW 11.3 mph /  18.2 km/h 11.3 mph /  18.2 km/h 81 % 0.0 in /  0 mm 0.0 W/m2 CLR
06:10 4.4 °F /  -15.3 °C 1.4 °F /  -17 °C 1007.7 in /  34120.7 hPa WNW 13.0 mph /  20.9 km/h 13.0 mph /  20.9 km/h 81 % 0.0 in /  0 mm 0.0 W/m2 CLR
06:15 4.4 °F /  -15.3 °C 1.6 °F /  -16.9 °C 1008.0 in /  34130.9 hPa WNW 16.7 mph /  26.9 km/h 16.7 mph /  26.9 km/h 82 % 0.0 in /  0 mm 0.0 W/m2 CLR
06:20 3.9 °F /  -15.6 °C 1.1 °F /  -17.2 °C 1008.0 in /  34130.9 hPa WNW 14.5 mph /  23.3 km/h 14.5 mph /  23.3 km/h 82 % 0.0 in /  0 mm 0.0 W/m2 CLR
06:25 3.9 °F /  -15.6 °C 1.1 °F /  -17.2 °C 1008.0 in /  34130.9 hPa WNW 13.0 mph /  20.9 km/h 13.0 mph /  20.9 km/h 82 % 0.0 in /  0 mm 0.0 W/m2 CLR
06:30 3.9 °F /  -15.6 °C 1.1 °F /  -17.2 °C 1008.0 in /  34130.9 hPa WNW 13.0 mph /  20.9 km/h 13.0 mph /  20.9 km/h 82 % 0.0 in /  0 mm 0.0 W/m2 CLR
06:35 3.3 °F /  -15.9 °C 0.7 °F /  -17.4 °C 1008.0 in /  34130.9 hPa WNW 13.0 mph /  20.9 km/h 13.0 mph /  20.9 km/h 83 % 0.0 in /  0 mm 0.0 W/m2 CLR
06:40 3.3 °F /  -15.9 °C 0.7 °F /  -17.4 °C 1008.4 in /  34144.4 hPa WNW 13.0 mph /  20.9 km/h 13.0 mph /  20.9 km/h 83 % 0.0 in /  0 mm 0.0 W/m2 CLR
06:45 3.3 °F /  -15.9 °C 0.7 °F /  -17.4 °C 1008.4 in /  34144.4 hPa NW 14.8 mph /  23.8 km/h 14.8 mph /  23.8 km/h 83 % 0.0 in /  0 mm 0.0 W/m2 CLR
06:50 3.3 °F /  -15.9 °C 0.7 °F /  -17.4 °C 1008.4 in /  34144.4 hPa WNW 14.8 mph /  23.8 km/h 14.8 mph /  23.8 km/h 83 % 0.0 in /  0 mm 0.0 W/m2 CLR
06:55 3.3 °F /  -15.9 °C 0.6 °F /  -17.4 °C 1008.4 in /  34144.4 hPa NW 17.7 mph /  28.5 km/h 17.7 mph /  28.5 km/h 82 % 0.0 in /  0 mm 0.0 W/m2 CLR
07:00 3.3 °F /  -15.9 °C 0.4 °F /  -17.6 °C 1008.7 in /  34154.6 hPa NW 14.8 mph /  23.8 km/h 14.8 mph /  23.8 km/h 81 % 0.0 in /  0 mm 0.0 W/m2 CLR
07:05 2.8 °F /  -16.2 °C -0.3 °F /  -17.9 °C 1008.7 in /  34154.6 hPa NW 14.8 mph /  23.8 km/h 14.8 mph /  23.8 km/h 80 % 0.0 in /  0 mm 0.0 W/m2 CLR
07:10 2.8 °F /  -16.2 °C -0.3 °F /  -17.9 °C 1009.0 in /  34164.7 hPa NW 14.8 mph /  23.8 km/h 14.8 mph /  23.8 km/h 80 % 0.0 in /  0 mm 0.0 W/m2 CLR
07:15 3.3 °F /  -15.9 °C 0.2 °F /  -17.7 °C 1009.0 in /  34164.7 hPa NW 16.7 mph /  26.9 km/h 16.7 mph /  26.9 km/h 80 % 0.0 in /  0 mm 0.0 W/m2 OVC
07:20 3.3 °F /  -15.9 °C 0.1 °F /  -17.7 °C 1009.0 in /  34164.7 hPa WNW 18.5 mph /  29.8 km/h 18.5 mph /  29.8 km/h 79 % 0.0 in /  0 mm 0.0 W/m2 OVC
07:25 3.9 °F /  -15.6 °C 0.6 °F /  -17.4 °C 1009.4 in /  34178.3 hPa NW 18.5 mph /  29.8 km/h 18.5 mph /  29.8 km/h 79 % 0.0 in /  0 mm 5.0 W/m2 OVC
07:30 3.9 °F /  -15.6 °C 0.4 °F /  -17.6 °C 1009.4 in /  34178.3 hPa NNW 18.5 mph /  29.8 km/h 18.5 mph /  29.8 km/h 78 % 0.0 in /  0 mm 7.0 W/m2 BKN
07:35 4.4 °F /  -15.3 °C 0.9 °F /  -17.3 °C 1009.4 in /  34178.3 hPa NNW 18.5 mph /  29.8 km/h 18.5 mph /  29.8 km/h 78 % 0.0 in /  0 mm 9.0 W/m2 BKN
07:40 4.4 °F /  -15.3 °C 0.9 °F /  -17.3 °C 1009.4 in /  34178.3 hPa NW 20.4 mph /  32.8 km/h 20.4 mph /  32.8 km/h 78 % 0.0 in /  0 mm 11.0 W/m2 BKN
07:45 4.4 °F /  -15.3 °C 0.8 °F /  -17.3 °C 1009.4 in /  34178.3 hPa NNW 20.4 mph /  32.8 km/h 20.4 mph /  32.8 km/h 77 % 0.0 in /  0 mm 12.0 W/m2 BKN
07:50 4.4 °F /  -15.3 °C 0.6 °F /  -17.4 °C 1009.7 in /  34188.4 hPa NNW 16.7 mph /  26.9 km/h 16.7 mph /  26.9 km/h 76 % 0.0 in /  0 mm 16.0 W/m2 BKN
07:55 4.4 °F /  -15.3 °C 0.6 °F /  -17.4 °C 1009.7 in /  34188.4 hPa NW 24.1 mph /  38.8 km/h 24.1 mph /  38.8 km/h 76 % 0.0 in /  0 mm 18.0 W/m2 BKN
08:00 4.4 °F /  -15.3 °C 0.4 °F /  -17.6 °C 1010.0 in /  34198.6 hPa NW 18.5 mph /  29.8 km/h 18.5 mph /  29.8 km/h 75 % 0.0 in /  0 mm 18.0 W/m2 BKN
08:05 4.4 °F /  -15.3 °C 0.4 °F /  -17.6 °C 1010.0 in /  34198.6 hPa NW 18.5 mph /  29.8 km/h 18.5 mph /  29.8 km/h 75 % 0.0 in /  0 mm 44.0 W/m2 BKN
08:10 4.4 °F /  -15.3 °C 0.2 °F /  -17.7 °C 1010.0 in /  34198.6 hPa NW 24.1 mph /  38.8 km/h 24.1 mph /  38.8 km/h 74 % 0.0 in /  0 mm 60.0 W/m2 SCT
08:15 5.0 °F /  -15 °C 0.6 °F /  -17.4 °C 1010.0 in /  34198.6 hPa NNW 18.5 mph /  29.8 km/h 18.5 mph /  29.8 km/h 73 % 0.0 in /  0 mm 56.0 W/m2 SCT
08:20 5.0 °F /  -15 °C 0.6 °F /  -17.4 °C 1010.4 in /  34212.1 hPa NNW 18.5 mph /  29.8 km/h 18.5 mph /  29.8 km/h 73 % 0.0 in /  0 mm 90.0 W/m2 CLR
08:25 5.0 °F /  -15 °C 0.4 °F /  -17.6 °C 1010.4 in /  34212.1 hPa NNW 18.5 mph /  29.8 km/h 18.5 mph /  29.8 km/h 72 % 0.0 in /  0 mm 90.0 W/m2 FEW
08:30 5.0 °F /  -15 °C 0.2 °F /  -17.7 °C 1010.4 in /  34212.1 hPa NNW 19.3 mph /  31.1 km/h 19.3 mph /  31.1 km/h 71 % 0.0 in /  0 mm 123.0 W/m2 CLR
08:35 5.6 °F /  -14.7 °C 0.7 °F /  -17.4 °C 1010.7 in /  34222.3 hPa NNW 16.7 mph /  26.9 km/h 16.7 mph /  26.9 km/h 71 % 0.0 in /  0 mm 42.0 W/m2 CLR
08:40 5.6 °F /  -14.7 °C 0.5 °F /  -17.5 °C 1010.7 in /  34222.3 hPa NNW 16.7 mph /  26.9 km/h 16.7 mph /  26.9 km/h 70 % 0.0 in /  0 mm 30.0 W/m2 SCT
08:45 5.6 °F /  -14.7 °C 0.3 °F /  -17.6 °C 1010.7 in /  34222.3 hPa NW 20.4 mph /  32.8 km/h 20.4 mph /  32.8 km/h 69 % 0.0 in /  0 mm 176.0 W/m2 SCT
08:50 5.6 °F /  -14.7 °C 0.3 °F /  -17.6 °C 1011.1 in /  34235.8 hPa North 14.8 mph /  23.8 km/h 14.8 mph /  23.8 km/h 69 % 0.0 in /  0 mm 206.0 W/m2 FEW
08:55 5.6 °F /  -14.7 °C 0.1 °F /  -17.7 °C 1011.1 in /  34235.8 hPa WNW 18.5 mph /  29.8 km/h 18.5 mph /  29.8 km/h 68 % 0.0 in /  0 mm 225.0 W/m2 CLR
09:00 6.1 °F /  -14.4 °C 0.7 °F /  -17.4 °C 1011.4 in /  34246 hPa NW 29.6 mph /  47.6 km/h 29.6 mph /  47.6 km/h 68 % 0.0 in /  0 mm 243.0 W/m2 CLR
09:05 6.7 °F /  -14.1 °C 0.9 °F /  -17.3 °C 1011.4 in /  34246 hPa NW 19.3 mph /  31.1 km/h 19.3 mph /  31.1 km/h 67 % 0.0 in /  0 mm 260.0 W/m2 CLR
09:10 6.7 °F /  -14.1 °C 0.8 °F /  -17.3 °C 1011.4 in /  34246 hPa NW 20.4 mph /  32.8 km/h 20.4 mph /  32.8 km/h 66 % 0.0 in /  0 mm 278.0 W/m2 CLR
09:15 6.7 °F /  -14.1 °C 0.8 °F /  -17.3 °C 1011.7 in /  34256.2 hPa NW 22.2 mph /  35.7 km/h 22.2 mph /  35.7 km/h 66 % 0.0 in /  0 mm 294.0 W/m2 CLR
09:20 6.7 °F /  -14.1 °C 0.6 °F /  -17.4 °C 1011.7 in /  34256.2 hPa WNW 18.5 mph /  29.8 km/h 18.5 mph /  29.8 km/h 65 % 0.0 in /  0 mm 309.0 W/m2 CLR
09:25 7.2 °F /  -13.8 °C 1.1 °F /  -17.2 °C 1011.7 in /  34256.2 hPa WNW 20.4 mph /  32.8 km/h 20.4 mph /  32.8 km/h 65 % 0.0 in /  0 mm 325.0 W/m2 CLR
09:30 7.2 °F /  -13.8 °C 1.3 °F /  -17.1 °C 1011.7 in /  34256.2 hPa NW 24.1 mph /  38.8 km/h 24.1 mph /  38.8 km/h 66 % 0.0 in /  0 mm 343.0 W/m2 CLR
09:35 7.8 °F /  -13.4 °C 1.8 °F /  -16.8 °C 1012.1 in /  34269.7 hPa WNW 18.5 mph /  29.8 km/h 18.5 mph /  29.8 km/h 66 % 0.0 in /  0 mm 357.0 W/m2 CLR
09:40 7.8 °F /  -13.4 °C 0.9 °F /  -17.3 °C 1012.1 in /  34269.7 hPa WNW 24.1 mph /  38.8 km/h 24.1 mph /  38.8 km/h 62 % 0.0 in /  0 mm 373.0 W/m2 CLR
09:45 7.8 °F /  -13.4 °C 1.6 °F /  -16.9 °C 1012.1 in /  34269.7 hPa NNW 18.5 mph /  29.8 km/h 18.5 mph /  29.8 km/h 65 % 0.0 in /  0 mm 387.0 W/m2 CLR
09:50 7.8 °F /  -13.4 °C 1.2 °F /  -17.1 °C 1012.4 in /  34279.9 hPa NW 24.1 mph /  38.8 km/h 24.1 mph /  38.8 km/h 63 % 0.0 in /  0 mm 404.0 W/m2 CLR
09:55 8.3 °F /  -13.2 °C 1.7 °F /  -16.8 °C 1012.4 in /  34279.9 hPa NW 29.6 mph /  47.6 km/h 29.6 mph /  47.6 km/h 63 % 0.0 in /  0 mm 418.0 W/m2 CLR
10:00 8.3 °F /  -13.2 °C 1.2 °F /  -17.1 °C 1012.4 in /  34279.9 hPa North 31.5 mph /  50.7 km/h 31.5 mph /  50.7 km/h 61 % 0.0 in /  0 mm 432.0 W/m2 CLR
10:05 8.3 °F /  -13.2 °C 1.4 °F /  -17 °C 1012.8 in /  34293.4 hPa NNW 33.3 mph /  53.6 km/h 33.3 mph /  53.6 km/h 62 % 0.0 in /  0 mm 446.0 W/m2 CLR
10:10 8.9 °F /  -12.8 °C 2.0 °F /  -16.7 °C 1012.8 in /  34293.4 hPa North 29.0 mph /  46.7 km/h 29.0 mph /  46.7 km/h 62 % 0.0 in /  0 mm 459.0 W/m2 CLR
10:15 8.9 °F /  -12.8 °C 1.8 °F /  -16.8 °C 1012.8 in /  34293.4 hPa NNW 27.8 mph /  44.7 km/h 27.8 mph /  44.7 km/h 61 % 0.0 in /  0 mm 475.0 W/m2 CLR
10:20 8.9 °F /  -12.8 °C 1.6 °F /  -16.9 °C 1012.8 in /  34293.4 hPa NNW 33.3 mph /  53.6 km/h 33.3 mph /  53.6 km/h 60 % 0.0 in /  0 mm 489.0 W/m2 CLR
10:25 8.9 °F /  -12.8 °C 1.6 °F /  -16.9 °C 1012.8 in /  34293.4 hPa NW 31.5 mph /  50.7 km/h 31.5 mph /  50.7 km/h 60 % 0.0 in /  0 mm 499.0 W/m2 CLR
10:30 8.9 °F /  -12.8 °C 1.1 °F /  -17.2 °C 1012.8 in /  34293.4 hPa NNW 31.5 mph /  50.7 km/h 31.5 mph /  50.7 km/h 58 % 0.0 in /  0 mm 515.0 W/m2 CLR
10:35 9.4 °F /  -12.6 °C 1.8 °F /  -16.8 °C 1013.1 in /  34303.6 hPa NNW 33.3 mph /  53.6 km/h 33.3 mph /  53.6 km/h 59 % 0.0 in /  0 mm 527.0 W/m2 CLR
10:40 10.0 °F /  -12.2 °C 2.3 °F /  -16.5 °C 1013.1 in /  34303.6 hPa NNW 35.4 mph /  57 km/h 35.4 mph /  57 km/h 59 % 0.0 in /  0 mm 540.0 W/m2 CLR
10:45 10.0 °F /  -12.2 °C 2.3 °F /  -16.5 °C 1013.1 in /  34303.6 hPa NNW 33.3 mph /  53.6 km/h 33.3 mph /  53.6 km/h 59 % 0.0 in /  0 mm 552.0 W/m2 CLR
10:50 10.0 °F /  -12.2 °C 2.3 °F /  -16.5 °C 1013.1 in /  34303.6 hPa NNW 31.5 mph /  50.7 km/h 31.5 mph /  50.7 km/h 59 % 0.0 in /  0 mm 564.0 W/m2 CLR
10:55 10.6 °F /  -11.9 °C 2.1 °F /  -16.6 °C 1013.1 in /  34303.6 hPa North 33.8 mph /  54.4 km/h 33.8 mph /  54.4 km/h 56 % 0.0 in /  0 mm 578.0 W/m2 CLR
11:00 10.6 °F /  -11.9 °C 2.4 °F /  -16.4 °C 1013.1 in /  34303.6 hPa NNW 31.5 mph /  50.7 km/h 31.5 mph /  50.7 km/h 57 % 0.0 in /  0 mm 587.0 W/m2 CLR
11:05 10.6 °F /  -11.9 °C 1.9 °F /  -16.7 °C 1013.1 in /  34303.6 hPa NNW 35.2 mph /  56.6 km/h 35.2 mph /  56.6 km/h 55 % 0.0 in /  0 mm 598.0 W/m2 CLR
11:10 11.1 °F /  -11.6 °C 2.9 °F /  -16.2 °C 1013.1 in /  34303.6 hPa North 29.6 mph /  47.6 km/h 29.6 mph /  47.6 km/h 57 % 0.0 in /  0 mm 608.0 W/m2 CLR
11:15 11.1 °F /  -11.6 °C 2.9 °F /  -16.2 °C 1013.1 in /  34303.6 hPa NW 27.8 mph /  44.7 km/h 27.8 mph /  44.7 km/h 57 % 0.0 in /  0 mm 619.0 W/m2 CLR
11:20 11.1 °F /  -11.6 °C 2.7 °F /  -16.3 °C 1013.1 in /  34303.6 hPa NNW 24.1 mph /  38.8 km/h 24.1 mph /  38.8 km/h 56 % 0.0 in /  0 mm 628.0 W/m2 CLR
11:25 11.7 °F /  -11.3 °C 3.2 °F /  -16 °C 1013.1 in /  34303.6 hPa NW 35.2 mph /  56.6 km/h 35.2 mph /  56.6 km/h 56 % 0.0 in /  0 mm 636.0 W/m2 CLR
11:30 11.1 °F /  -11.6 °C 2.4 °F /  -16.4 °C 1013.4 in /  34313.7 hPa NNW 32.2 mph /  51.8 km/h 32.2 mph /  51.8 km/h 55 % 0.0 in /  0 mm 645.0 W/m2 CLR
11:35 11.7 °F /  -11.3 °C 2.9 °F /  -16.2 °C 1013.4 in /  34313.7 hPa North 31.5 mph /  50.7 km/h 31.5 mph /  50.7 km/h 55 % 0.0 in /  0 mm 652.0 W/m2 CLR
11:36 11.7 °F /  -11.3 °C 2.9 °F /  -16.2 °C 1013.4 in /  34313.7 hPa NNW 31.5 mph /  50.7 km/h 31.5 mph /  50.7 km/h 55 % 0.0 in /  0 mm 654.0 W/m2 CLR
11:41 11.7 °F /  -11.3 °C 2.9 °F /  -16.2 °C 1013.4 in /  34313.7 hPa North 33.3 mph /  53.6 km/h 33.3 mph /  53.6 km/h 55 % 0.0 in /  0 mm 663.0 W/m2 CLR
11:46 11.7 °F /  -11.3 °C 3.2 °F /  -16 °C 1013.4 in /  34313.7 hPa NW 32.2 mph /  51.8 km/h 32.2 mph /  51.8 km/h 56 % 0.0 in /  0 mm 670.0 W/m2 CLR
11:51 11.7 °F /  -11.3 °C 2.7 °F /  -16.3 °C 1013.4 in /  34313.7 hPa NNW 31.5 mph /  50.7 km/h 31.5 mph /  50.7 km/h 54 % 0.0 in /  0 mm 680.0 W/m2 CLR
11:56 11.7 °F /  -11.3 °C 2.9 °F /  -16.2 °C 1013.4 in /  34313.7 hPa NNW 29.6 mph /  47.6 km/h 29.6 mph /  47.6 km/h 55 % 0.0 in /  0 mm 693.0 W/m2 CLR
12:01 12.2 °F /  -11 °C 3.4 °F /  -15.9 °C 1013.4 in /  34313.7 hPa NNW 33.3 mph /  53.6 km/h 33.3 mph /  53.6 km/h 55 % 0.0 in /  0 mm 696.0 W/m2 CLR
12:06 11.7 °F /  -11.3 °C 2.9 °F /  -16.2 °C 1013.4 in /  34313.7 hPa NW 31.5 mph /  50.7 km/h 31.5 mph /  50.7 km/h 55 % 0.0 in /  0 mm 700.0 W/m2 CLR
12:11 12.2 °F /  -11 °C 2.9 °F /  -16.2 °C 1013.4 in /  34313.7 hPa NW 31.5 mph /  50.7 km/h 31.5 mph /  50.7 km/h 53 % 0.0 in /  0 mm 705.0 W/m2 CLR
12:16 12.2 °F /  -11 °C 2.9 °F /  -16.2 °C 1013.4 in /  34313.7 hPa NNW 18.5 mph /  29.8 km/h 18.5 mph /  29.8 km/h 53 % 0.0 in /  0 mm 708.0 W/m2 CLR
12:21 12.2 °F /  -11 °C 2.7 °F /  -16.3 °C 1013.4 in /  34313.7 hPa NW 31.5 mph /  50.7 km/h 31.5 mph /  50.7 km/h 52 % 0.0 in /  0 mm 724.0 W/m2 CLR
12:26 12.2 °F /  -11 °C 2.4 °F /  -16.4 °C 1013.4 in /  34313.7 hPa NNW 25.9 mph /  41.7 km/h 25.9 mph /  41.7 km/h 51 % 0.0 in /  0 mm 724.0 W/m2 CLR
12:31 12.8 °F /  -10.7 °C 2.9 °F /  -16.2 °C 1013.4 in /  34313.7 hPa North 40.7 mph /  65.5 km/h 40.7 mph /  65.5 km/h 51 % 0.0 in /  0 mm 719.0 W/m2 CLR
12:36 12.8 °F /  -10.7 °C 2.6 °F /  -16.3 °C 1013.1 in /  34303.6 hPa North 37.0 mph /  59.5 km/h 37.0 mph /  59.5 km/h 50 % 0.0 in /  0 mm 726.0 W/m2 CLR
12:41 12.8 °F /  -10.7 °C 2.6 °F /  -16.3 °C 1013.1 in /  34303.6 hPa NNE 38.9 mph /  62.6 km/h 38.9 mph /  62.6 km/h 50 % 0.0 in /  0 mm 728.0 W/m2 CLR
12:46 12.8 °F /  -10.7 °C 2.3 °F /  -16.5 °C 1013.1 in /  34303.6 hPa North 31.5 mph /  50.7 km/h 31.5 mph /  50.7 km/h 49 % 0.0 in /  0 mm 731.0 W/m2 CLR
12:51 12.2 °F /  -11 °C 2.4 °F /  -16.4 °C 1013.1 in /  34303.6 hPa NNW 29.6 mph /  47.6 km/h 29.6 mph /  47.6 km/h 51 % 0.0 in /  0 mm 729.0 W/m2 CLR
12:56 12.8 °F /  -10.7 °C 2.6 °F /  -16.3 °C 1013.1 in /  34303.6 hPa North 37.0 mph /  59.5 km/h 37.0 mph /  59.5 km/h 50 % 0.0 in /  0 mm 726.0 W/m2 CLR
13:01 12.8 °F /  -10.7 °C 2.3 °F /  -16.5 °C 1013.4 in /  34313.7 hPa North 31.5 mph /  50.7 km/h 31.5 mph /  50.7 km/h 49 % 0.0 in /  0 mm 728.0 W/m2 CLR
13:06 12.8 °F /  -10.7 °C 2.3 °F /  -16.5 °C 1013.1 in /  34303.6 hPa NNW 33.3 mph /  53.6 km/h 33.3 mph /  53.6 km/h 49 % 0.0 in /  0 mm 708.0 W/m2 CLR
13:11 13.3 °F /  -10.4 °C 2.2 °F /  -16.6 °C 1013.4 in /  34313.7 hPa NNW 42.6 mph /  68.6 km/h 42.6 mph /  68.6 km/h 47 % 0.0 in /  0 mm 731.0 W/m2 CLR
13:16 12.8 °F /  -10.7 °C 1.7 °F /  -16.8 °C 1013.4 in /  34313.7 hPa NNE 25.9 mph /  41.7 km/h 25.9 mph /  41.7 km/h 47 % 0.0 in /  0 mm 737.0 W/m2 CLR
13:21 12.8 °F /  -10.7 °C 2.1 °F /  -16.6 °C 1013.1 in /  34303.6 hPa North 37.0 mph /  59.5 km/h 37.0 mph /  59.5 km/h 48 % 0.0 in /  0 mm 738.0 W/m2 CLR
13:26 12.8 °F /  -10.7 °C 2.3 °F /  -16.5 °C 1013.1 in /  34303.6 hPa North 33.3 mph /  53.6 km/h 33.3 mph /  53.6 km/h 49 % 0.0 in /  0 mm 737.0 W/m2 CLR
13:31 12.8 °F /  -10.7 °C 2.1 °F /  -16.6 °C 1013.1 in /  34303.6 hPa NNW 31.5 mph /  50.7 km/h 31.5 mph /  50.7 km/h 48 % 0.0 in /  0 mm 738.0 W/m2 CLR
13:36 13.3 °F /  -10.4 °C 2.6 °F /  -16.3 °C 1012.8 in /  34293.4 hPa North 29.6 mph /  47.6 km/h 29.6 mph /  47.6 km/h 48 % 0.0 in /  0 mm 729.0 W/m2 CLR
13:41 12.8 °F /  -10.7 °C 2.1 °F /  -16.6 °C 1012.8 in /  34293.4 hPa NNW 29.6 mph /  47.6 km/h 29.6 mph /  47.6 km/h 48 % 0.0 in /  0 mm 726.0 W/m2 CLR
13:46 12.8 °F /  -10.7 °C 1.7 °F /  -16.8 °C 1012.8 in /  34293.4 hPa NNE 20.4 mph /  32.8 km/h 20.4 mph /  32.8 km/h 47 % 0.0 in /  0 mm 729.0 W/m2 CLR
13:51 12.8 °F /  -10.7 °C 1.7 °F /  -16.8 °C 1012.8 in /  34293.4 hPa North 31.5 mph /  50.7 km/h 31.5 mph /  50.7 km/h 47 % 0.0 in /  0 mm 740.0 W/m2 CLR
13:56 12.8 °F /  -10.7 °C 1.7 °F /  -16.8 °C 1012.8 in /  34293.4 hPa North 29.0 mph /  46.7 km/h 29.0 mph /  46.7 km/h 47 % 0.0 in /  0 mm 682.0 W/m2 CLR
14:01 12.8 °F /  -10.7 °C 1.7 °F /  -16.8 °C 1012.8 in /  34293.4 hPa North 33.3 mph /  53.6 km/h 33.3 mph /  53.6 km/h 47 % 0.0 in /  0 mm 712.0 W/m2 CLR
14:06 13.3 °F /  -10.4 °C 2.2 °F /  -16.6 °C 1012.8 in /  34293.4 hPa NNW 20.4 mph /  32.8 km/h 20.4 mph /  32.8 km/h 47 % 0.0 in /  0 mm 705.0 W/m2 CLR
14:11 13.3 °F /  -10.4 °C 1.9 °F /  -16.7 °C 1012.8 in /  34293.4 hPa North 24.1 mph /  38.8 km/h 24.1 mph /  38.8 km/h 46 % 0.0 in /  0 mm 703.0 W/m2 CLR
14:16 13.9 °F /  -10.1 °C 2.8 °F /  -16.2 °C 1012.8 in /  34293.4 hPa NE 37.0 mph /  59.5 km/h 37.0 mph /  59.5 km/h 47 % 0.0 in /  0 mm 703.0 W/m2 CLR
14:21 12.8 °F /  -10.7 °C 2.1 °F /  -16.6 °C 1012.8 in /  34293.4 hPa North 25.9 mph /  41.7 km/h 25.9 mph /  41.7 km/h 48 % 0.0 in /  0 mm 698.0 W/m2 CLR
14:26 12.8 °F /  -10.7 °C 1.7 °F /  -16.8 °C 1012.8 in /  34293.4 hPa North 22.2 mph /  35.7 km/h 22.2 mph /  35.7 km/h 47 % 0.0 in /  0 mm 693.0 W/m2 CLR
14:31 13.3 °F /  -10.4 °C 1.9 °F /  -16.7 °C 1012.4 in /  34279.9 hPa North 22.2 mph /  35.7 km/h 22.2 mph /  35.7 km/h 46 % 0.0 in /  0 mm 686.0 W/m2 CLR
14:36 13.3 °F /  -10.4 °C 1.3 °F /  -17.1 °C 1012.4 in /  34279.9 hPa North 33.3 mph /  53.6 km/h 33.3 mph /  53.6 km/h 44 % 0.0 in /  0 mm 680.0 W/m2 CLR
14:41 13.3 °F /  -10.4 °C 1.6 °F /  -16.9 °C 1012.4 in /  34279.9 hPa NNW 29.0 mph /  46.7 km/h 29.0 mph /  46.7 km/h 45 % 0.0 in /  0 mm 671.0 W/m2 CLR
14:46 13.3 °F /  -10.4 °C 1.3 °F /  -17.1 °C 1012.8 in /  34293.4 hPa NNW 31.5 mph /  50.7 km/h 31.5 mph /  50.7 km/h 44 % 0.0 in /  0 mm 666.0 W/m2 CLR
14:51 13.3 °F /  -10.4 °C 1.3 °F /  -17.1 °C 1012.4 in /  34279.9 hPa NW 20.9 mph /  33.6 km/h 20.9 mph /  33.6 km/h 44 % 0.0 in /  0 mm 657.0 W/m2 CLR
14:56 13.9 °F /  -10.1 °C 1.8 °F /  -16.8 °C 1012.4 in /  34279.9 hPa NNW 22.2 mph /  35.7 km/h 22.2 mph /  35.7 km/h 44 % 0.0 in /  0 mm 647.0 W/m2 CLR
15:01 13.3 °F /  -10.4 °C 1.6 °F /  -16.9 °C 1012.4 in /  34279.9 hPa NW 22.2 mph /  35.7 km/h 22.2 mph /  35.7 km/h 45 % 0.0 in /  0 mm 638.0 W/m2 CLR
15:06 13.9 °F /  -10.1 °C 1.5 °F /  -16.9 °C 1012.4 in /  34279.9 hPa North 18.5 mph /  29.8 km/h 18.5 mph /  29.8 km/h 43 % 0.0 in /  0 mm 628.0 W/m2 CLR
15:11 13.9 °F /  -10.1 °C 1.8 °F /  -16.8 °C 1012.4 in /  34279.9 hPa North 31.5 mph /  50.7 km/h 31.5 mph /  50.7 km/h 44 % 0.0 in /  0 mm 621.0 W/m2 CLR
15:16 13.9 °F /  -10.1 °C 1.5 °F /  -16.9 °C 1012.8 in /  34293.4 hPa North 18.5 mph /  29.8 km/h 18.5 mph /  29.8 km/h 43 % 0.0 in /  0 mm 608.0 W/m2 CLR
15:21 13.9 °F /  -10.1 °C 1.8 °F /  -16.8 °C 1012.8 in /  34293.4 hPa NNW 16.7 mph /  26.9 km/h 16.7 mph /  26.9 km/h 44 % 0.0 in /  0 mm 598.0 W/m2 CLR
15:26 13.3 °F /  -10.4 °C 1.3 °F /  -17.1 °C 1013.1 in /  34303.6 hPa North 18.5 mph /  29.8 km/h 18.5 mph /  29.8 km/h 44 % 0.0 in /  0 mm 589.0 W/m2 CLR
15:31 13.3 °F /  -10.4 °C 0.7 °F /  -17.4 °C 1013.1 in /  34303.6 hPa WNW 22.2 mph /  35.7 km/h 22.2 mph /  35.7 km/h 42 % 0.0 in /  0 mm 580.0 W/m2 CLR
15:36 13.9 °F /  -10.1 °C 1.2 °F /  -17.1 °C 1012.8 in /  34293.4 hPa NNW 18.5 mph /  29.8 km/h 18.5 mph /  29.8 km/h 42 % 0.0 in /  0 mm 568.0 W/m2 CLR
15:41 13.9 °F /  -10.1 °C 1.2 °F /  -17.1 °C 1012.8 in /  34293.4 hPa NW 27.8 mph /  44.7 km/h 27.8 mph /  44.7 km/h 42 % 0.0 in /  0 mm 559.0 W/m2 CLR
15:46 13.9 °F /  -10.1 °C 0.8 °F /  -17.3 °C 1012.8 in /  34293.4 hPa NNW 18.5 mph /  29.8 km/h 18.5 mph /  29.8 km/h 41 % 0.0 in /  0 mm 545.0 W/m2 CLR
15:51 13.9 °F /  -10.1 °C 1.5 °F /  -16.9 °C 1012.4 in /  34279.9 hPa North 20.4 mph /  32.8 km/h 20.4 mph /  32.8 km/h 43 % 0.0 in /  0 mm 536.0 W/m2 CLR
15:56 13.9 °F /  -10.1 °C 0.5 °F /  -17.5 °C 1012.4 in /  34279.9 hPa NNW 25.9 mph /  41.7 km/h 25.9 mph /  41.7 km/h 40 % 0.0 in /  0 mm 524.0 W/m2 CLR
16:01 13.9 °F /  -10.1 °C 1.2 °F /  -17.1 °C 1012.4 in /  34279.9 hPa North 18.5 mph /  29.8 km/h 18.5 mph /  29.8 km/h 42 % 0.0 in /  0 mm 508.0 W/m2 CLR
16:06 13.9 °F /  -10.1 °C 0.5 °F /  -17.5 °C 1012.4 in /  34279.9 hPa North 22.2 mph /  35.7 km/h 22.2 mph /  35.7 km/h 40 % 0.0 in /  0 mm 503.0 W/m2 CLR
16:11 13.9 °F /  -10.1 °C 0.2 °F /  -17.7 °C 1012.4 in /  34279.9 hPa NW 11.3 mph /  18.2 km/h 11.3 mph /  18.2 km/h 39 % 0.0 in /  0 mm 487.0 W/m2 CLR
16:16 13.9 °F /  -10.1 °C 1.2 °F /  -17.1 °C 1012.4 in /  34279.9 hPa NNW 16.7 mph /  26.9 km/h 16.7 mph /  26.9 km/h 42 % 0.0 in /  0 mm 478.0 W/m2 CLR
16:21 13.9 °F /  -10.1 °C 0.2 °F /  -17.7 °C 1012.8 in /  34293.4 hPa NNW 19.3 mph /  31.1 km/h 19.3 mph /  31.1 km/h 39 % 0.0 in /  0 mm 441.0 W/m2 CLR
16:26 13.9 °F /  -10.1 °C 0.2 °F /  -17.7 °C 1012.8 in /  34293.4 hPa North 16.7 mph /  26.9 km/h 16.7 mph /  26.9 km/h 39 % 0.0 in /  0 mm 434.0 W/m2 CLR
16:31 13.9 °F /  -10.1 °C 0.8 °F /  -17.3 °C 1012.8 in /  34293.4 hPa NNW 24.1 mph /  38.8 km/h 24.1 mph /  38.8 km/h 41 % 0.0 in /  0 mm 408.0 W/m2 CLR
16:36 13.9 °F /  -10.1 °C 0.2 °F /  -17.7 °C 1012.8 in /  34293.4 hPa NNE 19.3 mph /  31.1 km/h 19.3 mph /  31.1 km/h 39 % 0.0 in /  0 mm 413.0 W/m2 CLR
16:41 13.9 °F /  -10.1 °C 0.5 °F /  -17.5 °C 1012.4 in /  34279.9 hPa NNW 20.9 mph /  33.6 km/h 20.9 mph /  33.6 km/h 40 % 0.0 in /  0 mm 401.0 W/m2 CLR
16:46 13.9 °F /  -10.1 °C 0.2 °F /  -17.7 °C 1012.8 in /  34293.4 hPa NNE 16.1 mph /  25.9 km/h 16.1 mph /  25.9 km/h 39 % 0.0 in /  0 mm 376.0 W/m2 CLR
16:51 13.9 °F /  -10.1 °C 0.2 °F /  -17.7 °C 1012.8 in /  34293.4 hPa NNE 20.4 mph /  32.8 km/h 20.4 mph /  32.8 km/h 39 % 0.0 in /  0 mm 369.0 W/m2 CLR
16:56 13.9 °F /  -10.1 °C 0.5 °F /  -17.5 °C 1012.8 in /  34293.4 hPa North 18.5 mph /  29.8 km/h 18.5 mph /  29.8 km/h 40 % 0.0 in /  0 mm 350.0 W/m2 CLR
17:01 13.9 °F /  -10.1 °C 0.5 °F /  -17.5 °C 1012.8 in /  34293.4 hPa North 13.0 mph /  20.9 km/h 13.0 mph /  20.9 km/h 40 % 0.0 in /  0 mm 329.0 W/m2 CLR
17:06 13.3 °F /  -10.4 °C 0.0 °F /  -17.8 °C 1012.8 in /  34293.4 hPa North 14.5 mph /  23.3 km/h 14.5 mph /  23.3 km/h 40 % 0.0 in /  0 mm 320.0 W/m2 CLR
17:11 13.3 °F /  -10.4 °C 0.3 °F /  -17.6 °C 1012.8 in /  34293.4 hPa NE 16.7 mph /  26.9 km/h 16.7 mph /  26.9 km/h 41 % 0.0 in /  0 mm 302.0 W/m2 CLR
17:16 13.3 °F /  -10.4 °C 0.3 °F /  -17.6 °C 1012.8 in /  34293.4 hPa NNE 14.8 mph /  23.8 km/h 14.8 mph /  23.8 km/h 41 % 0.0 in /  0 mm 239.0 W/m2 CLR
17:21 13.3 °F /  -10.4 °C 0.3 °F /  -17.6 °C 1012.8 in /  34293.4 hPa NW 13.0 mph /  20.9 km/h 13.0 mph /  20.9 km/h 41 % 0.0 in /  0 mm 248.0 W/m2 CLR
17:26 13.3 °F /  -10.4 °C 0.3 °F /  -17.6 °C 1012.8 in /  34293.4 hPa North 16.7 mph /  26.9 km/h 16.7 mph /  26.9 km/h 41 % 0.0 in /  0 mm 230.0 W/m2 CLR
17:31 12.8 °F /  -10.7 °C -0.2 °F /  -17.9 °C 1012.8 in /  34293.4 hPa North 7.4 mph /  11.9 km/h   41 % 0.0 in /  0 mm 185.0 W/m2 CLR
17:36 12.8 °F /  -10.7 °C -0.5 °F /  -18.1 °C 1012.8 in /  34293.4 hPa NNW 13.0 mph /  20.9 km/h 13.0 mph /  20.9 km/h 40 % 0.0 in /  0 mm 153.0 W/m2 CLR
17:41 12.8 °F /  -10.7 °C -0.2 °F /  -17.9 °C 1013.1 in /  34303.6 hPa Calm     41 % 0.0 in /  0 mm 190.0 W/m2 CLR
17:46 12.8 °F /  -10.7 °C -0.5 °F /  -18.1 °C 1013.1 in /  34303.6 hPa NNE 11.3 mph /  18.2 km/h 11.3 mph /  18.2 km/h 40 % 0.0 in /  0 mm 116.0 W/m2 CLR
17:51 12.2 °F /  -11 °C -0.3 °F /  -17.9 °C 1013.1 in /  34303.6 hPa NNE 1.9 mph /  3.1 km/h 1.9 mph /  3.1 km/h 42 % 0.0 in /  0 mm 146.0 W/m2 CLR
17:56 12.2 °F /  -11 °C -0.7 °F /  -18.2 °C 1013.1 in /  34303.6 hPa NNE 5.6 mph /  9 km/h   41 % 0.0 in /  0 mm 118.0 W/m2 CLR
18:01 12.2 °F /  -11 °C -0.3 °F /  -17.9 °C 1013.1 in /  34303.6 hPa NNE 13.0 mph /  20.9 km/h 13.0 mph /  20.9 km/h 42 % 0.0 in /  0 mm 93.0 W/m2 CLR
18:06 11.7 °F /  -11.3 °C -0.8 °F /  -18.2 °C 1013.1 in /  34303.6 hPa NNE 1.9 mph /  3.1 km/h   42 % 0.0 in /  0 mm 69.0 W/m2 FEW
18:11 11.7 °F /  -11.3 °C -0.8 °F /  -18.2 °C 1013.1 in /  34303.6 hPa Calm     42 % 0.0 in /  0 mm 54.0 W/m2 SCT
18:16 11.7 °F /  -11.3 °C -0.8 °F /  -18.2 °C 1013.1 in /  34303.6 hPa Calm     42 % 0.0 in /  0 mm 39.0 W/m2 BKN
18:21 11.1 °F /  -11.6 °C -1.3 °F /  -18.5 °C 1013.1 in /  34303.6 hPa Calm     42 % 0.0 in /  0 mm 32.0 W/m2 BKN
18:26 11.1 °F /  -11.6 °C -0.1 °F /  -17.8 °C 1013.1 in /  34303.6 hPa Calm     46 % 0.0 in /  0 mm 26.0 W/m2 BKN
18:31 10.6 °F /  -11.9 °C -1.2 °F /  -18.4 °C 1013.1 in /  34303.6 hPa Calm     44 % 0.0 in /  0 mm 23.0 W/m2 BKN
18:36 10.0 °F /  -12.2 °C -1.7 °F /  -18.7 °C 1013.1 in /  34303.6 hPa Calm     44 % 0.0 in /  0 mm 18.0 W/m2 BKN
18:41 9.4 °F /  -12.6 °C -2.2 °F /  -19 °C 1013.1 in /  34303.6 hPa Calm     44 % 0.0 in /  0 mm 14.0 W/m2 BKN
18:46 8.9 °F /  -12.8 °C -2.1 °F /  -18.9 °C 1013.1 in /  34303.6 hPa Calm     46 % 0.0 in /  0 mm 11.0 W/m2 BKN
18:51 8.3 °F /  -13.2 °C -2.3 °F /  -19.1 °C 1013.1 in /  34303.6 hPa Calm     47 % 0.0 in /  0 mm 5.0 W/m2 OVC
18:56 7.8 °F /  -13.4 °C -2.6 °F /  -19.2 °C 1013.1 in /  34303.6 hPa Calm     48 % 0.0 in /  0 mm 0.0 W/m2 OVC
19:01 7.8 °F /  -13.4 °C -2.6 °F /  -19.2 °C 1013.1 in /  34303.6 hPa Calm     48 % 0.0 in /  0 mm 0.0 W/m2 CLR
19:06 7.2 °F /  -13.8 °C -2.5 °F /  -19.2 °C 1013.1 in /  34303.6 hPa Calm     50 % 0.0 in /  0 mm 0.0 W/m2 CLR
19:11 6.7 °F /  -14.1 °C -2.5 °F /  -19.2 °C 1013.4 in /  34313.7 hPa Calm     52 % 0.0 in /  0 mm 0.0 W/m2 CLR
19:17 6.7 °F /  -14.1 °C -2.8 °F /  -19.3 °C 1013.4 in /  34313.7 hPa Calm     51 % 0.0 in /  0 mm 0.0 W/m2 CLR
19:22 6.7 °F /  -14.1 °C -1.7 °F /  -18.7 °C 1013.4 in /  34313.7 hPa Calm     55 % 0.0 in /  0 mm 0.0 W/m2 CLR
19:27 6.7 °F /  -14.1 °C -1.7 °F /  -18.7 °C 1013.4 in /  34313.7 hPa Calm     55 % 0.0 in /  0 mm 0.0 W/m2 CLR
19:32 6.7 °F /  -14.1 °C -1.0 °F /  -18.3 °C 1013.4 in /  34313.7 hPa Calm     58 % 0.0 in /  0 mm 0.0 W/m2 CLR
19:37 6.7 °F /  -14.1 °C -0.3 °F /  -17.9 °C 1013.4 in /  34313.7 hPa Calm     61 % 0.0 in /  0 mm 0.0 W/m2 CLR
19:42 6.7 °F /  -14.1 °C -0.1 °F /  -17.8 °C 1013.8 in /  34327.3 hPa Calm     62 % 0.0 in /  0 mm 0.0 W/m2 CLR
19:47 6.1 °F /  -14.4 °C -0.4 °F /  -18 °C 1013.8 in /  34327.3 hPa Calm     63 % 0.0 in /  0 mm 0.0 W/m2 CLR
19:52 6.1 °F /  -14.4 °C -0.2 °F /  -17.9 °C 1013.8 in /  34327.3 hPa Calm     64 % 0.0 in /  0 mm 0.0 W/m2 CLR
19:57 6.1 °F /  -14.4 °C 0.2 °F /  -17.7 °C 1013.8 in /  34327.3 hPa Calm     66 % 0.0 in /  0 mm 0.0 W/m2 CLR
20:02 5.6 °F /  -14.7 °C -0.1 °F /  -17.8 °C 1013.8 in /  34327.3 hPa Calm     67 % 0.0 in /  0 mm 0.0 W/m2 CLR
20:07 5.6 °F /  -14.7 °C 0.3 °F /  -17.6 °C 1013.8 in /  34327.3 hPa Calm     69 % 0.0 in /  0 mm 0.0 W/m2 CLR
20:12 5.6 °F /  -14.7 °C 0.3 °F /  -17.6 °C 1013.8 in /  34327.3 hPa Calm     69 % 0.0 in /  0 mm 0.0 W/m2 CLR
20:17 5.6 °F /  -14.7 °C 0.7 °F /  -17.4 °C 1013.8 in /  34327.3 hPa Calm     71 % 0.0 in /  0 mm 0.0 W/m2 CLR
20:22 5.6 °F /  -14.7 °C 0.7 °F /  -17.4 °C 1014.1 in /  34337.4 hPa Calm     71 % 0.0 in /  0 mm 0.0 W/m2 CLR
20:27 5.6 °F /  -14.7 °C 0.5 °F /  -17.5 °C 1014.1 in /  34337.4 hPa Calm     70 % 0.0 in /  0 mm 0.0 W/m2 CLR
20:32 5.6 °F /  -14.7 °C 0.7 °F /  -17.4 °C 1013.8 in /  34327.3 hPa Calm     71 % 0.0 in /  0 mm 0.0 W/m2 CLR
20:37 5.6 °F /  -14.7 °C 0.9 °F /  -17.3 °C 1013.8 in /  34327.3 hPa Calm     72 % 0.0 in /  0 mm 0.0 W/m2 CLR
20:42 5.6 °F /  -14.7 °C 1.1 °F /  -17.2 °C 1014.1 in /  34337.4 hPa Calm     73 % 0.0 in /  0 mm 0.0 W/m2 CLR
20:47 5.6 °F /  -14.7 °C 1.1 °F /  -17.2 °C 1014.1 in /  34337.4 hPa Calm     73 % 0.0 in /  0 mm 0.0 W/m2 CLR
20:52 5.6 °F /  -14.7 °C 0.9 °F /  -17.3 °C 1014.1 in /  34337.4 hPa Calm     72 % 0.0 in /  0 mm 0.0 W/m2 CLR
20:57 5.6 °F /  -14.7 °C 1.3 °F /  -17.1 °C 1014.1 in /  34337.4 hPa Calm     74 % 0.0 in /  0 mm 0.0 W/m2 CLR
21:02 5.6 °F /  -14.7 °C 1.3 °F /  -17.1 °C 1014.1 in /  34337.4 hPa Calm     74 % 0.0 in /  0 mm 0.0 W/m2 CLR
21:07 5.6 °F /  -14.7 °C 1.1 °F /  -17.2 °C 1014.1 in /  34337.4 hPa Calm     73 % 0.0 in /  0 mm 0.0 W/m2 CLR
21:12 5.6 °F /  -14.7 °C 1.1 °F /  -17.2 °C 1014.1 in /  34337.4 hPa Calm     73 % 0.0 in /  0 mm 0.0 W/m2 CLR
21:17 5.6 °F /  -14.7 °C 1.1 °F /  -17.2 °C 1014.1 in /  34337.4 hPa Calm     73 % 0.0 in /  0 mm 0.0 W/m2 CLR
21:22 5.6 °F /  -14.7 °C 1.4 °F /  -17 °C 1013.8 in /  34327.3 hPa Calm     75 % 0.0 in /  0 mm 0.0 W/m2 CLR
21:27 5.6 °F /  -14.7 °C 1.4 °F /  -17 °C 1013.8 in /  34327.3 hPa Calm     75 % 0.0 in /  0 mm 0.0 W/m2 CLR
21:32 5.0 °F /  -15 °C 1.1 °F /  -17.2 °C 1013.8 in /  34327.3 hPa Calm     76 % 0.0 in /  0 mm 0.0 W/m2 CLR
21:37 5.0 °F /  -15 °C 0.9 °F /  -17.3 °C 1013.8 in /  34327.3 hPa Calm     75 % 0.0 in /  0 mm 0.0 W/m2 CLR
21:42 5.0 °F /  -15 °C 0.7 °F /  -17.4 °C 1013.8 in /  34327.3 hPa Calm     74 % 0.0 in /  0 mm 0.0 W/m2 CLR
21:47 5.0 °F /  -15 °C 0.9 °F /  -17.3 °C 1013.8 in /  34327.3 hPa Calm     75 % 0.0 in /  0 mm 0.0 W/m2 CLR
21:52 4.4 °F /  -15.3 °C 0.6 °F /  -17.4 °C 1014.1 in /  34337.4 hPa Calm     76 % 0.0 in /  0 mm 0.0 W/m2 CLR
21:57 4.4 °F /  -15.3 °C 0.6 °F /  -17.4 °C 1014.1 in /  34337.4 hPa Calm     76 % 0.0 in /  0 mm 0.0 W/m2 CLR
22:02 4.4 °F /  -15.3 °C 0.6 °F /  -17.4 °C 1014.1 in /  34337.4 hPa Calm     76 % 0.0 in /  0 mm 0.0 W/m2 CLR
22:07 4.4 °F /  -15.3 °C 0.4 °F /  -17.6 °C 1014.1 in /  34337.4 hPa Calm     75 % 0.0 in /  0 mm 0.0 W/m2 CLR
22:12 4.4 °F /  -15.3 °C 0.6 °F /  -17.4 °C 1013.8 in /  34327.3 hPa Calm     76 % 0.0 in /  0 mm 0.0 W/m2 CLR
22:17 4.4 °F /  -15.3 °C 0.6 °F /  -17.4 °C 1014.1 in /  34337.4 hPa Calm     76 % 0.0 in /  0 mm 0.0 W/m2 CLR
22:22 4.4 °F /  -15.3 °C 0.6 °F /  -17.4 °C 1014.1 in /  34337.4 hPa Calm     76 % 0.0 in /  0 mm 0.0 W/m2 CLR
22:27 4.4 °F /  -15.3 °C 0.8 °F /  -17.3 °C 1013.8 in /  34327.3 hPa Calm     77 % 0.0 in /  0 mm 0.0 W/m2 CLR
22:32 4.4 °F /  -15.3 °C 0.6 °F /  -17.4 °C 1013.8 in /  34327.3 hPa Calm     76 % 0.0 in /  0 mm 0.0 W/m2 CLR
22:37 3.9 °F /  -15.6 °C 0.1 °F /  -17.7 °C 1014.1 in /  34337.4 hPa Calm     76 % 0.0 in /  0 mm 0.0 W/m2 CLR
22:42 3.9 °F /  -15.6 °C 0.1 °F /  -17.7 °C 1013.8 in /  34327.3 hPa Calm     76 % 0.0 in /  0 mm 0.0 W/m2 CLR
22:47 3.9 °F /  -15.6 °C 0.1 °F /  -17.7 °C 1013.8 in /  34327.3 hPa Calm     76 % 0.0 in /  0 mm 0.0 W/m2 CLR
22:52 3.9 °F /  -15.6 °C 0.1 °F /  -17.7 °C 1013.8 in /  34327.3 hPa Calm     76 % 0.0 in /  0 mm 0.0 W/m2 CLR
22:57 3.3 °F /  -15.9 °C -0.5 °F /  -18.1 °C 1013.8 in /  34327.3 hPa Calm     76 % 0.0 in /  0 mm 0.0 W/m2 CLR
23:02 3.3 °F /  -15.9 °C -0.2 °F /  -17.9 °C 1013.8 in /  34327.3 hPa Calm     78 % 0.0 in /  0 mm 0.0 W/m2 CLR
23:07 3.9 °F /  -15.6 °C 0.6 °F /  -17.4 °C 1013.8 in /  34327.3 hPa Calm     79 % 0.0 in /  0 mm 0.0 W/m2 CLR
23:12 3.9 °F /  -15.6 °C 0.8 °F /  -17.3 °C 1014.1 in /  34337.4 hPa Calm     80 % 0.0 in /  0 mm 0.0 W/m2 CLR
23:17 3.3 °F /  -15.9 °C 0.4 °F /  -17.6 °C 1014.1 in /  34337.4 hPa Calm     81 % 0.0 in /  0 mm 0.0 W/m2 CLR
23:22 3.3 °F /  -15.9 °C 0.4 °F /  -17.6 °C 1014.1 in /  34337.4 hPa Calm     81 % 0.0 in /  0 mm 0.0 W/m2 CLR
23:27 3.3 °F /  -15.9 °C 0.6 °F /  -17.4 °C 1014.1 in /  34337.4 hPa Calm     82 % 0.0 in /  0 mm 0.0 W/m2 CLR
23:32 3.3 °F /  -15.9 °C 0.6 °F /  -17.4 °C 1014.1 in /  34337.4 hPa Calm     82 % 0.0 in /  0 mm 0.0 W/m2 CLR
23:37 3.3 °F /  -15.9 °C 0.4 °F /  -17.6 °C 1014.1 in /  34337.4 hPa Calm     81 % 0.0 in /  0 mm 0.0 W/m2 CLR
23:42 3.3 °F /  -15.9 °C 0.4 °F /  -17.6 °C 1013.8 in /  34327.3 hPa Calm     81 % 0.0 in /  0 mm 0.0 W/m2 CLR
23:47 3.3 °F /  -15.9 °C 0.6 °F /  -17.4 °C 1013.8 in /  34327.3 hPa Calm     82 % 0.0 in /  0 mm 0.0 W/m2 CLR
23:52 3.3 °F /  -15.9 °C 0.7 °F /  -17.4 °C 1013.8 in /  34327.3 hPa Calm     83 % 0.0 in /  0 mm 0.0 W/m2 CLR
23:57 2.8 °F /  -16.2 °C 0.2 °F /  -17.7 °C 1013.4 in /  34313.7 hPa Calm     83 % 0.0 in /  0 mm 0.0 W/m2 CLR
Lo Temps de Massalio
Compliments of Weather Underground - 1.25 mb